createdAt,value
2022-11-15T00:02:25.487Z,98106.47
2022-11-15T00:05:12.299Z,98101.63
2022-11-15T00:07:59.399Z,98102.13
2022-11-15T00:10:56.200Z,98096.84
2022-11-15T00:13:42.955Z,98099.66
2022-11-15T00:16:30.308Z,98093.88
2022-11-15T00:19:17.498Z,98092.59
2022-11-15T00:22:04.401Z,98103.53
2022-11-15T00:24:51.259Z,98099.28
2022-11-15T00:27:38.174Z,98094.31
2022-11-15T00:30:25.333Z,98091.63
2022-11-15T00:33:12.260Z,98093.00
2022-11-15T00:36:12.007Z,98088.69
2022-11-15T00:38:58.991Z,98089.75
2022-11-15T00:41:45.767Z,98080.44
2022-11-15T00:44:32.733Z,98087.03
2022-11-15T00:47:19.880Z,98076.38
2022-11-15T00:50:06.941Z,98072.72
2022-11-15T00:52:53.558Z,98069.44
2022-11-15T00:55:40.518Z,98065.59
2022-11-15T00:58:27.200Z,98080.59
2022-11-15T01:01:15.055Z,98075.47
2022-11-15T01:04:01.837Z,98068.81
2022-11-15T01:06:48.679Z,98068.16
2022-11-15T01:09:35.390Z,98070.94
2022-11-15T01:12:22.327Z,98070.50
2022-11-15T01:15:09.557Z,98067.22
2022-11-15T01:17:56.615Z,98066.78
2022-11-15T01:20:43.557Z,98062.31
2022-11-15T01:23:30.638Z,98068.56
2022-11-15T01:26:17.451Z,98065.16
2022-11-15T01:29:04.505Z,98065.19
2022-11-15T01:31:51.399Z,98062.00
2022-11-15T01:34:38.247Z,98063.84
2022-11-15T01:37:25.131Z,98056.38
2022-11-15T01:40:12.256Z,98061.41
2022-11-15T01:42:58.794Z,98067.41
2022-11-15T01:45:45.581Z,98059.59
2022-11-15T01:48:34.691Z,98048.00
2022-11-15T01:51:22.893Z,98051.44
2022-11-15T01:54:13.386Z,98055.28
2022-11-15T01:57:02.926Z,98044.00
2022-11-15T01:59:49.546Z,98054.38
2022-11-15T02:02:36.386Z,98049.34
2022-11-15T02:05:23.395Z,98045.06
2022-11-15T02:08:10.176Z,98044.50
2022-11-15T02:10:57.249Z,98050.22
2022-11-15T02:13:44.294Z,98053.94
2022-11-15T02:16:48.279Z,98050.50
2022-11-15T02:19:34.816Z,98041.59
2022-11-15T02:23:04.128Z,98037.31
2022-11-15T02:26:09.187Z,98041.25
2022-11-15T02:29:06.129Z,98041.72
2022-11-15T02:32:05.181Z,98046.91
2022-11-15T02:34:53.236Z,98032.03
2022-11-15T02:37:59.960Z,98042.66
2022-11-15T02:41:02.913Z,98037.69
2022-11-15T02:43:59.245Z,98032.66
2022-11-15T02:47:16.716Z,98033.16
2022-11-15T02:50:08.453Z,98028.91
2022-11-15T02:52:55.486Z,98023.88
2022-11-15T02:55:46.747Z,98029.53
2022-11-15T02:59:10.159Z,98028.47
2022-11-15T03:02:30.634Z,98025.03
2022-11-15T03:05:52.193Z,98028.56
2022-11-15T03:08:56.829Z,98015.97
2022-11-15T03:11:47.902Z,98018.47
2022-11-15T03:14:37.966Z,98018.25
2022-11-15T03:18:01.477Z,98018.78
2022-11-15T03:20:48.423Z,98019.22
2022-11-15T03:23:35.853Z,98020.94
2022-11-15T03:26:23.024Z,98019.19
2022-11-15T03:29:19.529Z,98015.50
2022-11-15T03:32:32.916Z,98016.16
2022-11-15T03:35:24.343Z,98007.19
2022-11-15T03:38:27.388Z,98010.31
2022-11-15T03:41:29.553Z,98006.63
2022-11-15T03:44:46.809Z,97996.56
2022-11-15T03:47:41.653Z,97991.22
2022-11-15T03:50:28.633Z,97987.19
2022-11-15T03:53:15.377Z,97982.19
2022-11-15T03:56:02.297Z,97982.34
2022-11-15T03:58:49.318Z,97973.88
2022-11-15T04:01:36.174Z,97970.41
2022-11-15T04:04:23.008Z,97979.75
2022-11-15T04:07:09.908Z,97964.81
2022-11-15T04:10:06.592Z,97971.06
2022-11-15T04:12:53.153Z,97963.84
2022-11-15T04:15:39.999Z,97971.22
2022-11-15T04:18:26.839Z,97975.84
2022-11-15T04:21:48.608Z,97971.91
2022-11-15T04:24:35.453Z,97975.94
2022-11-15T04:27:22.294Z,97967.31
2022-11-15T04:30:09.930Z,97968.78
2022-11-15T04:32:56.796Z,97965.63
2022-11-15T04:35:43.996Z,97957.19
2022-11-15T04:38:30.733Z,97954.97
2022-11-15T04:41:17.382Z,97952.47
2022-11-15T04:44:04.142Z,97948.47
2022-11-15T04:46:51.109Z,97949.09
2022-11-15T04:49:37.701Z,97950.06
2022-11-15T04:52:24.679Z,97955.03
2022-11-15T04:55:12.103Z,97956.88
2022-11-15T04:58:02.486Z,97952.50
2022-11-15T05:00:49.292Z,97952.16
2022-11-15T05:03:54.538Z,97950.41
2022-11-15T05:06:41.891Z,97953.69
2022-11-15T05:09:28.642Z,97950.19
2022-11-15T05:12:15.536Z,97952.47
2022-11-15T05:15:02.609Z,97949.00
2022-11-15T05:17:49.410Z,97952.56
2022-11-15T05:20:36.335Z,97947.56
2022-11-15T05:23:23.404Z,97950.63
2022-11-15T05:26:10.443Z,97950.59
2022-11-15T05:28:58.278Z,97956.97
2022-11-15T05:31:45.270Z,97951.72
2022-11-15T05:34:31.903Z,97957.97
2022-11-15T05:37:18.890Z,97946.53
2022-11-15T05:40:06.215Z,97951.88
2022-11-15T05:42:52.982Z,97952.69
2022-11-15T05:45:40.261Z,97947.53
2022-11-15T05:48:27.207Z,97949.78
2022-11-15T05:51:14.222Z,97956.28
2022-11-15T05:54:00.902Z,97956.34
2022-11-15T05:56:47.788Z,97956.59
2022-11-15T05:59:34.727Z,97960.25
2022-11-15T06:02:21.596Z,97966.19
2022-11-15T06:05:08.610Z,97962.53
2022-11-15T06:07:59.473Z,97965.63
2022-11-15T06:10:46.465Z,97971.38
2022-11-15T06:13:34.312Z,97964.44
2022-11-15T06:16:21.475Z,97965.78
2022-11-15T06:19:10.769Z,97953.59
2022-11-15T06:21:57.747Z,97965.81
2022-11-15T06:24:45.297Z,97967.94
2022-11-15T06:27:32.196Z,97969.25
2022-11-15T06:30:18.928Z,97964.94
2022-11-15T06:33:06.290Z,97959.28
2022-11-15T06:35:53.507Z,97967.31
2022-11-15T06:38:40.244Z,97959.50
2022-11-15T06:41:27.278Z,97965.03
2022-11-15T06:44:14.252Z,97955.63
2022-11-15T06:47:01.286Z,97953.56
2022-11-15T06:49:48.506Z,97960.34
2022-11-15T06:52:35.360Z,97957.34
2022-11-15T06:55:22.371Z,97953.34
2022-11-15T06:58:09.407Z,97955.53
2022-11-15T07:01:00.555Z,97953.34
2022-11-15T07:03:47.408Z,97958.56
2022-11-15T07:06:34.452Z,97938.47
2022-11-15T07:09:21.301Z,97950.97
2022-11-15T07:12:08.290Z,97944.16
2022-11-15T07:14:55.246Z,97942.25
2022-11-15T07:17:42.374Z,97937.47
2022-11-15T07:20:28.921Z,97943.47
2022-11-15T07:23:15.733Z,97929.72
2022-11-15T07:26:02.798Z,97936.06
2022-11-15T07:28:49.566Z,97929.50
2022-11-15T07:31:36.778Z,97935.13
2022-11-15T07:34:24.958Z,97941.16
2022-11-15T07:37:12.128Z,97930.19
2022-11-15T07:39:58.725Z,97941.59
2022-11-15T07:42:55.062Z,97930.34
2022-11-15T07:45:45.494Z,97940.38
2022-11-15T07:48:43.438Z,97939.22
2022-11-15T07:51:31.325Z,97944.09
2022-11-15T07:54:18.145Z,97941.41
2022-11-15T07:57:07.482Z,97940.78
2022-11-15T07:59:54.995Z,97933.53
2022-11-15T08:02:42.591Z,97939.41
2022-11-15T08:05:29.662Z,97943.53
2022-11-15T08:08:16.606Z,97931.56
2022-11-15T08:11:03.558Z,97935.13
2022-11-15T08:13:50.492Z,97932.16
2022-11-15T08:16:37.467Z,97922.31
2022-11-15T08:19:24.356Z,97926.34
2022-11-15T08:22:11.137Z,97912.31
2022-11-15T08:24:58.076Z,97919.44
2022-11-15T08:27:45.413Z,97912.91
2022-11-15T08:30:32.278Z,97906.97
2022-11-15T08:33:18.966Z,97898.59
2022-11-15T08:36:06.038Z,97896.41
2022-11-15T08:38:52.903Z,97886.63
2022-11-15T08:41:39.478Z,97887.69
2022-11-15T08:44:26.639Z,97887.00
2022-11-15T08:47:13.785Z,97879.59
2022-11-15T08:50:00.642Z,97878.25
2022-11-15T08:52:49.393Z,97880.84
2022-11-15T08:55:39.462Z,97880.84
2022-11-15T08:58:26.165Z,97883.72
2022-11-15T09:01:19.964Z,97880.41
2022-11-15T09:04:07.002Z,97877.81
2022-11-15T09:06:53.729Z,97875.75
2022-11-15T09:09:40.630Z,97867.56
2022-11-15T09:12:27.649Z,97865.16
2022-11-15T09:15:14.621Z,97857.44
2022-11-15T09:18:01.697Z,97850.41
2022-11-15T09:20:48.535Z,97852.41
2022-11-15T09:23:35.491Z,97858.38
2022-11-15T09:26:22.521Z,97846.81
2022-11-15T09:29:09.301Z,97845.81
2022-11-15T09:31:56.291Z,97853.28
2022-11-15T09:34:43.225Z,97839.34
2022-11-15T09:37:30.460Z,97836.34
2022-11-15T09:40:18.710Z,97834.91
2022-11-15T09:43:42.234Z,97829.16
2022-11-15T09:46:58.101Z,97824.69
2022-11-15T09:49:27.200Z,97821.81
2022-11-15T09:52:18.615Z,97819.47
2022-11-15T09:54:54.286Z,97812.78
2022-11-15T09:57:51.469Z,97812.31
2022-11-15T10:00:45.415Z,97805.72
2022-11-15T10:03:14.278Z,97808.97
2022-11-15T10:05:49.835Z,97794.75
2022-11-15T10:08:22.677Z,97788.34
2022-11-15T10:11:35.540Z,97786.75
2022-11-15T10:13:51.529Z,97776.69
2022-11-15T10:16:39.990Z,97773.41
2022-11-15T10:19:40.045Z,97780.19
2022-11-15T10:22:31.055Z,97770.31
2022-11-15T10:25:17.569Z,97766.78
2022-11-15T10:27:54.333Z,97758.28
2022-11-15T10:30:23.151Z,97761.06
2022-11-15T10:32:51.492Z,97755.28
2022-11-15T10:35:22.508Z,97754.16
2022-11-15T10:37:51.832Z,97749.28
2022-11-15T10:40:24.569Z,97747.03
2022-11-15T10:43:19.241Z,97741.03
2022-11-15T10:45:47.759Z,97742.28
2022-11-15T10:48:16.058Z,97731.53
2022-11-15T10:50:45.755Z,97723.00
2022-11-15T10:53:27.325Z,97721.25
2022-11-15T10:55:59.161Z,97724.84
2022-11-15T10:58:41.238Z,97723.25
2022-11-15T11:01:17.156Z,97714.72
2022-11-15T11:04:01.290Z,97720.84
2022-11-15T11:06:29.829Z,97710.50
2022-11-15T11:09:03.237Z,97696.97
2022-11-15T11:11:47.574Z,97696.44
2022-11-15T11:14:35.935Z,97690.88
2022-11-15T11:17:42.071Z,97681.34
2022-11-15T11:20:22.622Z,97677.34
2022-11-15T11:23:15.362Z,97685.88
2022-11-15T11:26:08.583Z,97668.25
2022-11-15T11:28:56.050Z,97667.28
2022-11-15T11:31:52.450Z,97665.09
2022-11-15T11:34:51.810Z,97649.91
2022-11-15T11:37:32.776Z,97670.16
2022-11-15T11:40:23.739Z,97654.03
2022-11-15T11:43:02.822Z,97663.03
2022-11-15T11:45:56.162Z,97655.63
2022-11-15T11:48:27.409Z,97652.94
2022-11-15T11:51:07.191Z,97642.75
2022-11-15T11:53:43.756Z,97644.94
2022-11-15T11:56:39.447Z,97640.00
2022-11-15T11:59:43.046Z,97644.09
2022-11-15T12:02:33.873Z,97629.06
2022-11-15T12:05:35.444Z,97625.97
2022-11-15T12:08:17.296Z,97630.47
2022-11-15T12:10:47.329Z,97625.91
2022-11-15T12:13:18.634Z,97624.75
2022-11-15T12:15:54.328Z,97630.59
2022-11-15T12:18:22.829Z,97618.75
2022-11-15T12:21:06.592Z,97617.41
2022-11-15T12:23:41.116Z,97624.47
2022-11-15T12:26:18.490Z,97618.41
2022-11-15T12:29:09.248Z,97611.81
2022-11-15T12:31:42.621Z,97604.25
2022-11-15T12:34:23.417Z,97618.94
2022-11-15T12:36:52.125Z,97605.66
2022-11-15T12:39:20.693Z,97607.50
2022-11-15T12:41:57.998Z,97610.50
2022-11-15T12:44:32.880Z,97606.59
2022-11-15T12:47:08.332Z,97602.94
2022-11-15T12:49:36.630Z,97603.63
2022-11-15T12:52:07.219Z,97604.00
2022-11-15T12:54:41.685Z,97595.50
2022-11-15T12:57:12.770Z,97598.09
2022-11-15T13:00:06.073Z,97589.72
2022-11-15T13:02:48.772Z,97590.56
2022-11-15T13:05:17.564Z,97599.09
2022-11-15T13:07:45.978Z,97602.44
2022-11-15T13:10:14.211Z,97589.16
2022-11-15T13:12:45.670Z,97589.25
2022-11-15T13:15:14.015Z,97587.81
2022-11-15T13:17:49.279Z,97592.63
2022-11-15T13:20:19.393Z,97587.59
2022-11-15T13:23:00.753Z,97590.06
2022-11-15T13:25:41.170Z,97583.53
2022-11-15T13:28:15.592Z,97596.81
2022-11-15T13:30:55.618Z,97587.03
2022-11-15T13:33:28.442Z,97589.88
2022-11-15T13:36:15.761Z,97584.66
2022-11-15T13:38:45.173Z,97585.47
2022-11-15T13:41:24.603Z,97584.84
2022-11-15T13:43:54.133Z,97583.59
2022-11-15T13:46:27.965Z,97582.56
2022-11-15T13:49:06.520Z,97581.81
2022-11-15T13:51:37.877Z,97576.16
2022-11-15T13:54:18.323Z,97572.03
2022-11-15T13:56:54.168Z,97562.25
2022-11-15T13:59:28.355Z,97563.69
2022-11-15T14:01:58.160Z,97572.94
2022-11-15T14:04:27.415Z,97563.63
2022-11-15T14:06:57.838Z,97571.41
2022-11-15T14:09:34.623Z,97566.22
2022-11-15T14:12:04.396Z,97567.16
2022-11-15T14:14:32.774Z,97571.22
2022-11-15T14:17:01.663Z,97570.75
2022-11-15T14:19:29.926Z,97559.16
2022-11-15T14:22:18.470Z,97564.38
2022-11-15T14:24:48.861Z,97574.00
2022-11-15T14:27:24.693Z,97561.28
2022-11-15T14:29:53.611Z,97572.72
2022-11-15T14:32:27.223Z,97566.22
2022-11-15T14:35:02.628Z,97566.50
2022-11-15T14:37:36.067Z,97562.53
2022-11-15T14:40:06.193Z,97556.13
2022-11-15T14:42:34.544Z,97555.25
2022-11-15T14:45:02.886Z,97551.16
2022-11-15T14:47:31.183Z,97559.94
2022-11-15T14:49:59.509Z,97555.66
2022-11-15T14:52:35.511Z,97545.94
2022-11-15T14:55:05.523Z,97551.13
2022-11-15T14:57:33.923Z,97544.66
2022-11-15T15:00:02.400Z,97540.97
2022-11-15T15:02:42.252Z,97543.25
2022-11-15T15:05:20.542Z,97542.59
2022-11-15T15:07:49.106Z,97545.50
2022-11-15T15:10:39.072Z,97542.13
2022-11-15T15:13:06.660Z,97544.38
2022-11-15T15:15:38.582Z,97537.66
2022-11-15T15:18:09.821Z,97533.31
2022-11-15T15:20:40.349Z,97528.59
2022-11-15T15:23:19.629Z,97523.72
2022-11-15T15:25:50.570Z,97528.25
2022-11-15T15:28:18.936Z,97531.41
2022-11-15T15:30:47.488Z,97519.94
2022-11-15T15:33:15.875Z,97530.63
2022-11-15T15:35:44.243Z,97535.97
2022-11-15T15:38:13.502Z,97526.78
2022-11-15T15:40:42.014Z,97525.72
2022-11-15T15:43:10.634Z,97518.78
2022-11-15T15:45:41.328Z,97515.25
2022-11-15T15:48:14.109Z,97510.66
2022-11-15T15:50:44.141Z,97510.81
2022-11-15T15:53:15.510Z,97505.25
2022-11-15T15:55:45.128Z,97504.06
2022-11-15T15:58:13.471Z,97511.16
2022-11-15T16:00:41.957Z,97509.38
2022-11-15T16:03:10.518Z,97503.94
2022-11-15T16:05:39.364Z,97502.25
2022-11-15T16:08:23.375Z,97494.16
2022-11-15T16:10:52.349Z,97495.94
2022-11-15T16:13:23.389Z,97483.91
2022-11-15T16:15:54.172Z,97492.22
2022-11-15T16:18:22.669Z,97486.84
2022-11-15T16:20:53.562Z,97483.94
2022-11-15T16:23:24.849Z,97474.63
2022-11-15T16:25:56.984Z,97475.53
2022-11-15T16:28:30.003Z,97473.38
2022-11-15T16:31:19.508Z,97473.50
2022-11-15T16:33:47.963Z,97478.09
2022-11-15T16:36:30.537Z,97473.91
2022-11-15T16:39:00.091Z,97470.84
2022-11-15T16:41:31.757Z,97478.03
2022-11-15T16:44:00.700Z,97472.09
2022-11-15T16:46:30.211Z,97468.16
2022-11-15T16:48:59.601Z,97477.00
2022-11-15T16:51:31.357Z,97469.47
2022-11-15T16:54:08.908Z,97477.13
2022-11-15T16:56:37.302Z,97465.09
2022-11-15T16:59:06.784Z,97460.28
2022-11-15T17:01:36.258Z,97454.44
2022-11-15T17:04:19.444Z,97462.38
2022-11-15T17:06:48.995Z,97449.16
2022-11-15T17:09:19.466Z,97446.72
2022-11-15T17:11:48.045Z,97447.22
2022-11-15T17:14:17.295Z,97442.25
2022-11-15T17:16:45.832Z,97439.41
2022-11-15T17:19:19.051Z,97443.53
2022-11-15T17:21:52.678Z,97436.75
2022-11-15T17:24:21.422Z,97428.09
2022-11-15T17:26:53.688Z,97433.16
2022-11-15T17:29:22.830Z,97428.97
2022-11-15T17:31:51.475Z,97407.31
2022-11-15T17:34:20.001Z,97412.69
2022-11-15T17:36:49.529Z,97410.78
2022-11-15T17:39:19.927Z,97400.38
2022-11-15T17:41:49.657Z,97404.19
2022-11-15T17:44:19.531Z,97393.28
2022-11-15T17:46:47.986Z,97394.06
2022-11-15T17:49:17.785Z,97387.25
2022-11-15T17:51:49.954Z,97380.13
2022-11-15T17:54:19.959Z,97394.31
2022-11-15T17:56:49.387Z,97386.53
2022-11-15T17:59:21.704Z,97387.06
2022-11-15T18:01:57.765Z,97380.25
2022-11-15T18:04:28.585Z,97392.34
2022-11-15T18:06:57.933Z,97376.94
2022-11-15T18:09:27.853Z,97386.38
2022-11-15T18:11:59.449Z,97376.31
2022-11-15T18:14:27.924Z,97374.31
2022-11-15T18:16:56.807Z,97362.47
2022-11-15T18:19:25.358Z,97363.66
2022-11-15T18:21:56.870Z,97366.09
2022-11-15T18:24:30.496Z,97360.75
2022-11-15T18:27:00.736Z,97361.63
2022-11-15T18:29:29.357Z,97359.25
2022-11-15T18:31:59.169Z,97365.22
2022-11-15T18:34:34.034Z,97360.84
2022-11-15T18:37:03.773Z,97352.97
2022-11-15T18:39:32.389Z,97356.31
2022-11-15T18:42:05.346Z,97349.97
2022-11-15T18:44:33.849Z,97350.25
2022-11-15T18:47:04.376Z,97349.34
2022-11-15T18:49:33.284Z,97338.59
2022-11-15T18:52:04.853Z,97345.69
2022-11-15T18:54:35.104Z,97350.94
2022-11-15T18:57:03.793Z,97337.81
2022-11-15T18:59:32.936Z,97337.97
2022-11-15T19:02:01.222Z,97336.59
2022-11-15T19:04:29.738Z,97335.16
2022-11-15T19:06:58.415Z,97323.38
2022-11-15T19:09:33.865Z,97319.00
2022-11-15T19:12:02.619Z,97330.75
2022-11-15T19:14:35.757Z,97328.59
2022-11-15T19:17:06.764Z,97329.31
2022-11-15T19:19:35.173Z,97318.25
2022-11-15T19:22:03.784Z,97321.19
2022-11-15T19:24:33.087Z,97322.19
2022-11-15T19:27:02.052Z,97319.56
2022-11-15T19:29:30.786Z,97323.78
2022-11-15T19:31:59.589Z,97311.91
2022-11-15T19:34:29.216Z,97310.56
2022-11-15T19:36:57.637Z,97320.50
2022-11-15T19:39:26.657Z,97312.00
2022-11-15T19:41:55.639Z,97317.16
2022-11-15T19:44:26.617Z,97318.88
2022-11-15T19:46:54.999Z,97320.41
2022-11-15T19:49:23.826Z,97316.09
2022-11-15T19:51:54.930Z,97311.59
2022-11-15T19:54:26.720Z,97323.50
2022-11-15T19:56:55.335Z,97310.03
2022-11-15T19:59:23.697Z,97315.00
2022-11-15T20:01:52.357Z,97312.47
2022-11-15T20:04:20.927Z,97311.81
2022-11-15T20:06:49.336Z,97306.03
2022-11-15T20:09:18.158Z,97298.59
2022-11-15T20:11:46.546Z,97302.91
2022-11-15T20:14:18.317Z,97301.97
2022-11-15T20:16:52.930Z,97306.09
2022-11-15T20:19:22.940Z,97316.50
2022-11-15T20:21:51.322Z,97302.16
2022-11-15T20:24:19.746Z,97312.44
2022-11-15T20:26:53.348Z,97311.25
2022-11-15T20:29:21.825Z,97310.38
2022-11-15T20:31:51.568Z,97313.59
2022-11-15T20:34:19.858Z,97307.06
2022-11-15T20:36:48.167Z,97300.59
2022-11-15T20:39:16.640Z,97298.19
2022-11-15T20:41:45.737Z,97292.47
2022-11-15T20:44:14.910Z,97289.38
2022-11-15T20:46:43.400Z,97281.28
2022-11-15T20:49:12.000Z,97287.97
2022-11-15T20:51:40.498Z,97281.16
2022-11-15T20:54:09.234Z,97275.59
2022-11-15T20:56:37.780Z,97282.16
2022-11-15T20:59:06.130Z,97267.31
2022-11-15T21:01:34.804Z,97269.72
2022-11-15T21:04:03.463Z,97262.25
2022-11-15T21:06:34.327Z,97264.78
2022-11-15T21:09:21.362Z,97274.63
2022-11-15T21:12:08.931Z,97271.75
2022-11-15T21:14:38.145Z,97273.09
2022-11-15T21:17:06.959Z,97258.25
2022-11-15T21:19:36.983Z,97264.34
2022-11-15T21:22:06.012Z,97274.06
2022-11-15T21:24:34.463Z,97268.47
2022-11-15T21:27:03.957Z,97262.38
2022-11-15T21:29:38.577Z,97257.78
2022-11-15T21:32:07.833Z,97257.94
2022-11-15T21:34:36.937Z,97256.13
2022-11-15T21:37:05.589Z,97251.88
2022-11-15T21:39:33.991Z,97255.63
2022-11-15T21:42:03.202Z,97251.22
2022-11-15T21:44:32.027Z,97253.56
2022-11-15T21:47:00.619Z,97244.13
2022-11-15T21:49:28.951Z,97240.31
2022-11-15T21:51:57.461Z,97230.06
2022-11-15T21:54:25.776Z,97231.06
2022-11-15T21:56:54.118Z,97231.72
2022-11-15T21:59:22.490Z,97226.91
2022-11-15T22:02:09.456Z,97216.47
2022-11-15T22:04:37.789Z,97219.72
2022-11-15T22:07:06.134Z,97210.09
2022-11-15T22:09:34.464Z,97209.78
2022-11-15T22:12:02.904Z,97201.75
2022-11-15T22:14:31.245Z,97192.97
2022-11-15T22:16:59.517Z,97191.56
2022-11-15T22:19:27.875Z,97194.56
2022-11-15T22:21:56.348Z,97191.63
2022-11-15T22:24:24.767Z,97195.81
2022-11-15T22:26:53.176Z,97191.41
2022-11-15T22:29:21.560Z,97187.72
2022-11-15T22:31:49.917Z,97188.72
2022-11-15T22:34:18.201Z,97189.16
2022-11-15T22:37:18.258Z,97185.97
2022-11-15T22:39:34.818Z,97179.69
2022-11-15T22:42:03.167Z,97175.31
2022-11-15T22:44:31.414Z,97182.47
2022-11-15T22:46:59.754Z,97163.59
2022-11-15T22:49:28.074Z,97178.31
2022-11-15T22:51:56.319Z,97179.81
2022-11-15T22:54:24.602Z,97176.81
2022-11-15T22:56:53.689Z,97170.81
2022-11-15T22:59:22.006Z,97164.97
2022-11-15T23:01:51.221Z,97166.63
2022-11-15T23:04:19.580Z,97153.41
2022-11-15T23:06:48.035Z,97153.75
2022-11-15T23:09:16.947Z,97144.53
2022-11-15T23:12:03.677Z,97146.50
2022-11-15T23:14:31.978Z,97147.00
2022-11-15T23:17:00.347Z,97143.63
2022-11-15T23:19:28.685Z,97134.03
2022-11-15T23:22:15.380Z,97128.22
2022-11-15T23:24:43.749Z,97130.66
2022-11-15T23:27:15.426Z,97120.97
2022-11-15T23:30:02.115Z,97131.19
2022-11-15T23:32:49.343Z,97123.97
2022-11-15T23:35:17.719Z,97117.69
2022-11-15T23:37:46.185Z,97121.03
2022-11-15T23:40:14.620Z,97118.91
2022-11-15T23:42:43.032Z,97123.53
2022-11-15T23:45:11.502Z,97117.50
2022-11-15T23:47:39.811Z,97121.59
2022-11-15T23:50:08.606Z,97114.13
2022-11-15T23:52:36.907Z,97107.31
2022-11-15T23:55:06.212Z,97116.28
2022-11-15T23:57:34.535Z,97108.72
